Louis Armstrong New Orleans International Airport
KMSY : now visible

Aeroporto :











RITROVATECI SU...

 
LOGIN :

Iscrizione | Disclaimer

   EN    FR    IT 

 









Sommario :    VFR   VFR Marginale   IFR   IFR Intensivo   IFR Molto Intensivo
Visibilità : 
Base nubi : 
>= 8 km
>= 3000ft
5 / 8 km
1000 / 3000 ft
1500m / 5 km
500 / 1000 ft
800 / 1500m
200 / 500 ft
< 800m
< 200 ft
Simboli :   Temporali  Nebbia  Neve Forte  Precipitazioni Forti  Vento > 20 kt






- Altitudine del aeroporto : 4 ft
- Codice IATA : MSY


KMSY - Louis Armstrong New Orleans International

ULTIMO METAR :
  • 201120Z 12007KT 6SM BR OVC004 17/16 A3006 RMK AO2 T01720156

METARs OBSOLETI :
  • 201053Z 11006KT 8SM OVC005 17/15 A3006 RMK AO2 RAB11E50 SLP181 P0005 T01670150
  • 200953Z 11008KT 8SM OVC006 17/14 A3007 RMK AO2 RAB13E22 SLP184 P0000 T01670144
  • 200853Z 10009KT 10SM OVC007 17/14 A3009 RMK AO2 RAE18 SLP191 P0000 60000 T01670144 58021

TAF KMSY
Valido dal 20 a 06 ore il 21 a 12 ore UTC


200520Z 2006/2112 05006KT P6SM VCSH OVC006
FM201200 VRB04KT 1 1/2SM RA BR SCT003 OVC045
FM201800 36010G21KT 1 1/2SM RA BR SCT003 OVC015
FM202000 36012G22KT 4SM RA BR SCT008 OVC090
FM210300 01016G28KT P6SM SCT010 OVC020



MetMap, La meteo Aeronautica in un colpo d'occhio ! - Copyright ORBIFLY Dicembre 2007 - Disclaimer

ORBIFLY MET'MAP TEAM :

Programmazione e sviluppo : Alexandra Zaïnal
Concezione : Baudouin d'Aumeries
Aiuto per la programmazione : Marc-Olivier Méhu
Supporto tecnico e logistico : Manuel Goepfert
Aiuto per la traduzione : Arnaldo La Scala

Contatto : metmap@orbifly.com




FONTI E CREDITI :

   NOAA       Earth
Advisory